Porter Corners, New York
Current Conditions -  °F | °C
As of 11:53 PM on Friday 28 Nov 2014 (Local Time) from KGFL Reporting Station
Few Clouds Few Clouds  
Wind Chill: 11°   Ceiling: Unl
Heat Index: 11°   Visibility: 10mi
Dew Point:   Wind: 0mph
Humidity: 84%   Direction: NA
Pressure: 30.23"   Gusts: NA
Location:  43.15°N, 73.89°W
Report Text: KGFL 290453Z AUTO 00000KT 10SM FEW120 M12/M14 A3023 RMK AO2 SLP248 I1000 T11171139 400001122
Loading
Personal Weather Stations






























Interactive Weather Map New forecast layout! Learn more

10-Day Weather Forecast

Advertisements
Track Severe Weather on mobile